Time;durP1;ratioP1;P1;durP2;ratioP2;P2;SDS_P1;SDS_P2;PMS_P1;PMS_P2;Temp;Humidity;BMP_temperature;BMP_pressure;BME280_temperature;BME280_humidity;BME280_pressure;Samples;Min_cycle;Max_cycle;Signal;HPM_P1;HPM_P2
2024/01/30 00:01:44;;;;;;;17.00;10.53;;;;;;;;;;779144;178;919177;-66
2024/01/30 00:04:10;;;;;;;17.57;9.50;;;;;;;;;;776204;177;919486;-63
2024/01/30 00:06:36;;;;;;;19.30;9.30;;;;;;;;;;788870;177;818094;-66
2024/01/30 00:09:02;;;;;;;20.70;10.55;;;;;;;;;;784619;175;918937;-67
2024/01/30 00:11:28;;;;;;;21.10;11.33;;;;;;;;;;786734;178;917483;-66
2024/01/30 00:13:54;;;;;;;17.63;10.20;;;;;;;;;;785023;177;882362;-67
2024/01/30 00:16:21;;;;;;;18.23;11.47;;;;;;;;;;781635;177;919101;-62
2024/01/30 00:18:47;;;;;;;19.90;8.57;;;;;;;;;;776570;178;919345;-66
2024/01/30 00:21:13;;;;;;;17.60;10.27;;;;;;;;;;781042;178;917249;-65
2024/01/30 00:23:38;;;;;;;22.37;11.37;;;;;;;;;;779270;178;817036;-66
2024/01/30 00:26:05;;;;;;;22.80;11.50;;;;;;;;;;783884;177;919700;-61
2024/01/30 00:28:30;;;;;;;21.70;11.67;;;;;;;;;;779869;178;919573;-62
2024/01/30 00:30:56;;;;;;;18.93;10.67;;;;;;;;;;784614;178;919155;-66
2024/01/30 00:33:22;;;;;;;20.33;10.20;;;;;;;;;;776502;177;919593;-66
2024/01/30 00:35:48;;;;;;;21.33;10.23;;;;;;;;;;777632;178;906832;-62
2024/01/30 00:38:13;;;;;;;21.10;10.40;;;;;;;;;;789393;177;847892;-68
2024/01/30 00:40:39;;;;;;;22.90;10.53;;;;;;;;;;777348;179;1119989;-62
2024/01/30 00:43:05;;;;;;;15.90;9.67;;;;;;;;;;777024;177;918700;-62
2024/01/30 00:45:31;;;;;;;18.33;10.48;;;;;;;;;;787690;175;943763;-62
2024/01/30 00:47:57;;;;;;;17.53;10.63;;;;;;;;;;777011;177;920477;-66
2024/01/30 00:50:23;;;;;;;19.97;12.23;;;;;;;;;;777258;178;817198;-66
2024/01/30 00:52:48;;;;;;;16.37;10.07;;;;;;;;;;781203;178;919312;-62
2024/01/30 00:55:14;;;;;;;22.57;11.20;;;;;;;;;;785050;178;854959;-61
2024/01/30 00:57:40;;;;;;;16.37;10.53;;;;;;;;;;775078;177;918699;-67
2024/01/30 01:00:08;;;;;;;35.03;12.63;;;;;;;;;;783199;177;815391;-62
2024/01/30 01:02:32;;;;;;;22.13;11.33;;;;;;;;;;783762;177;815082;-61
2024/01/30 01:04:58;;;;;;;21.00;10.23;;;;;;;;;;780306;177;1009445;-66
2024/01/30 01:07:24;;;;;;;19.90;10.83;;;;;;;;;;775077;177;909629;-62
2024/01/30 01:09:50;;;;;;;20.13;10.40;;;;;;;;;;781037;177;919209;-66
2024/01/30 01:12:15;;;;;;;21.70;11.20;;;;;;;;;;778549;178;920802;-63
2024/01/30 01:14:41;;;;;;;23.92;11.80;;;;;;;;;;779787;175;920619;-66
2024/01/30 01:17:08;;;;;;;25.98;12.80;;;;;;;;;;778381;177;907415;-65
2024/01/30 01:19:33;;;;;;;17.47;11.20;;;;;;;;;;786970;176;918381;-65
2024/01/30 01:21:59;;;;;;;22.33;12.67;;;;;;;;;;774963;178;922792;-62
2024/01/30 01:24:25;;;;;;;23.87;10.93;;;;;;;;;;780524;178;919963;-66
2024/01/30 01:26:51;;;;;;;25.40;10.40;;;;;;;;;;785317;178;919979;-67
2024/01/30 01:29:17;;;;;;;18.57;11.00;;;;;;;;;;776694;178;918038;-62
2024/01/30 01:31:43;;;;;;;21.52;11.43;;;;;;;;;;782007;178;918643;-61
2024/01/30 01:34:09;;;;;;;19.47;11.33;;;;;;;;;;784378;178;919100;-66
2024/01/30 01:36:35;;;;;;;20.85;10.48;;;;;;;;;;780975;177;921372;-66
2024/01/30 01:39:01;;;;;;;19.73;10.63;;;;;;;;;;780962;177;923513;-61
2024/01/30 01:41:27;;;;;;;16.37;8.77;;;;;;;;;;786593;177;818223;-67
2024/01/30 01:43:53;;;;;;;14.30;9.17;;;;;;;;;;779042;177;920400;-65
2024/01/30 01:46:18;;;;;;;26.60;10.63;;;;;;;;;;779494;176;919864;-61
2024/01/30 01:48:45;;;;;;;18.27;9.70;;;;;;;;;;782430;177;893594;-62
2024/01/30 01:51:10;;;;;;;19.52;10.50;;;;;;;;;;785623;177;918113;-65
2024/01/30 01:53:36;;;;;;;18.30;11.13;;;;;;;;;;778740;178;815695;-62
2024/01/30 01:56:03;;;;;;;16.50;9.57;;;;;;;;;;781400;177;917663;-66
2024/01/30 01:58:28;;;;;;;16.60;8.90;;;;;;;;;;785911;178;816229;-61
2024/01/30 02:00:54;;;;;;;21.33;11.57;;;;;;;;;;778502;178;919612;-61
2024/01/30 02:03:21;;;;;;;18.77;10.70;;;;;;;;;;774477;178;826559;-66
2024/01/30 02:05:45;;;;;;;20.20;10.07;;;;;;;;;;785798;178;916502;-62
2024/01/30 02:08:11;;;;;;;24.27;11.40;;;;;;;;;;772646;177;914992;-67
2024/01/30 02:10:37;;;;;;;18.47;10.80;;;;;;;;;;783617;177;838965;-66
2024/01/30 02:13:04;;;;;;;20.47;10.60;;;;;;;;;;780987;177;919192;-62
2024/01/30 02:15:29;;;;;;;22.57;9.63;;;;;;;;;;779581;180;921678;-66
2024/01/30 02:17:54;;;;;;;24.90;10.80;;;;;;;;;;787852;175;916327;-61
2024/01/30 02:20:20;;;;;;;16.60;9.27;;;;;;;;;;784598;177;921440;-67
2024/01/30 02:22:46;;;;;;;16.90;9.47;;;;;;;;;;788407;178;818169;-65
2024/01/30 02:25:12;;;;;;;16.70;10.00;;;;;;;;;;782356;178;918075;-65
2024/01/30 02:27:38;;;;;;;21.70;9.90;;;;;;;;;;782761;177;919024;-66
2024/01/30 02:30:04;;;;;;;17.37;10.53;;;;;;;;;;787042;178;819259;-62
2024/01/30 02:32:30;;;;;;;16.70;8.50;;;;;;;;;;779754;178;864160;-65
2024/01/30 02:34:56;;;;;;;16.40;10.17;;;;;;;;;;778238;178;916861;-61
2024/01/30 02:37:22;;;;;;;18.70;9.30;;;;;;;;;;790560;177;919134;-62
2024/01/30 02:39:48;;;;;;;19.43;10.07;;;;;;;;;;782200;177;919148;-61
2024/01/30 02:42:13;;;;;;;18.07;9.33;;;;;;;;;;777286;178;918758;-65
2024/01/30 02:44:39;;;;;;;17.43;9.23;;;;;;;;;;775218;179;919106;-66
2024/01/30 02:47:05;;;;;;;18.03;9.10;;;;;;;;;;787876;177;918769;-67
2024/01/30 02:49:31;;;;;;;17.23;8.10;;;;;;;;;;779925;177;918482;-61
2024/01/30 02:51:57;;;;;;;20.37;10.03;;;;;;;;;;779228;178;920392;-66
2024/01/30 02:54:23;;;;;;;14.03;8.60;;;;;;;;;;785016;178;915132;-66
2024/01/30 02:56:48;;;;;;;15.87;8.07;;;;;;;;;;780548;177;915912;-66
2024/01/30 02:59:14;;;;;;;17.57;8.57;;;;;;;;;;776299;177;919795;-66
2024/01/30 03:01:42;;;;;;;15.10;8.20;;;;;;;;;;784071;178;918126;-62
2024/01/30 03:04:08;;;;;;;18.70;8.13;;;;;;;;;;784646;177;918193;-62
2024/01/30 03:06:34;;;;;;;16.37;8.87;;;;;;;;;;784345;177;916930;-65
2024/01/30 03:09:00;;;;;;;14.75;8.65;;;;;;;;;;784832;175;817943;-65
2024/01/30 03:11:25;;;;;;;15.20;8.63;;;;;;;;;;783266;177;819893;-66
2024/01/30 03:13:51;;;;;;;17.20;9.70;;;;;;;;;;775734;177;817257;-66
2024/01/30 03:16:17;;;;;;;21.30;10.27;;;;;;;;;;781686;176;918110;-61
2024/01/30 03:18:43;;;;;;;17.80;9.20;;;;;;;;;;786023;178;814586;-66
2024/01/30 03:21:09;;;;;;;19.07;9.67;;;;;;;;;;779547;178;917363;-66
2024/01/30 03:23:35;;;;;;;19.63;10.43;;;;;;;;;;782548;177;915723;-61
2024/01/30 03:26:00;;;;;;;21.07;10.20;;;;;;;;;;782522;178;919067;-62
2024/01/30 03:28:26;;;;;;;20.67;11.07;;;;;;;;;;783231;176;918378;-65
2024/01/30 03:30:52;;;;;;;17.77;9.33;;;;;;;;;;780728;177;919100;-62
2024/01/30 03:33:19;;;;;;;14.95;7.93;;;;;;;;;;782893;178;910024;-65
2024/01/30 03:35:45;;;;;;;15.53;9.27;;;;;;;;;;787833;177;1028714;-67
2024/01/30 03:38:10;;;;;;;20.07;9.47;;;;;;;;;;785302;177;919079;-66
2024/01/30 03:40:36;;;;;;;22.00;8.93;;;;;;;;;;782115;178;816175;-66
2024/01/30 03:43:02;;;;;;;18.43;8.80;;;;;;;;;;789570;178;818908;-62
2024/01/30 03:45:28;;;;;;;21.97;10.33;;;;;;;;;;783883;178;919478;-61
2024/01/30 03:47:54;;;;;;;20.37;10.37;;;;;;;;;;775906;179;918751;-61
2024/01/30 03:50:20;;;;;;;18.43;10.00;;;;;;;;;;786707;178;919277;-65
2024/01/30 03:52:45;;;;;;;18.37;8.63;;;;;;;;;;780914;177;813875;-66
2024/01/30 03:55:11;;;;;;;23.40;9.10;;;;;;;;;;777089;178;919471;-66
2024/01/30 03:57:37;;;;;;;16.83;8.90;;;;;;;;;;787096;177;918350;-65
2024/01/30 04:00:04;;;;;;;18.12;10.25;;;;;;;;;;780537;177;918663;-68
2024/01/30 04:02:29;;;;;;;14.20;8.57;;;;;;;;;;779204;178;919195;-66
2024/01/30 04:04:55;;;;;;;18.07;9.40;;;;;;;;;;776384;178;918509;-62
2024/01/30 04:07:21;;;;;;;18.33;9.37;;;;;;;;;;784980;178;825671;-61
2024/01/30 04:09:47;;;;;;;19.87;10.13;;;;;;;;;;778243;178;919299;-67
2024/01/30 04:12:12;;;;;;;15.23;8.63;;;;;;;;;;776542;178;919201;-61
2024/01/30 04:14:38;;;;;;;17.80;10.33;;;;;;;;;;780621;178;921689;-66
2024/01/30 04:17:04;;;;;;;18.73;10.50;;;;;;;;;;778434;178;821169;-60
2024/01/30 04:19:30;;;;;;;20.60;11.60;;;;;;;;;;779356;178;935496;-61
2024/01/30 04:21:56;;;;;;;25.95;12.80;;;;;;;;;;786204;178;816447;-61
2024/01/30 04:24:22;;;;;;;31.63;16.27;;;;;;;;;;781120;177;919045;-61
2024/01/30 04:26:47;;;;;;;22.98;11.07;;;;;;;;;;775710;178;919092;-66
2024/01/30 04:29:14;;;;;;;24.48;14.15;;;;;;;;;;783833;177;941221;-66
2024/01/30 04:31:40;;;;;;;25.43;11.60;;;;;;;;;;787379;177;914333;-66
2024/01/30 04:34:05;;;;;;;20.30;10.00;;;;;;;;;;780704;177;919335;-61
2024/01/30 04:36:31;;;;;;;24.80;13.63;;;;;;;;;;779685;177;1111745;-61
2024/01/30 04:38:57;;;;;;;17.53;10.20;;;;;;;;;;784382;177;833891;-61
2024/01/30 04:41:23;;;;;;;20.90;11.90;;;;;;;;;;781444;178;922041;-62
2024/01/30 04:43:49;;;;;;;26.63;11.70;;;;;;;;;;781169;175;921264;-66
2024/01/30 04:46:15;;;;;;;20.60;11.73;;;;;;;;;;785261;178;815761;-65
2024/01/30 04:48:41;;;;;;;20.20;10.30;;;;;;;;;;780409;175;1017579;-61
2024/01/30 04:51:06;;;;;;;22.70;11.67;;;;;;;;;;774306;178;920071;-60
2024/01/30 04:53:32;;;;;;;24.67;12.05;;;;;;;;;;785668;178;1016137;-68
2024/01/30 04:55:58;;;;;;;19.60;10.13;;;;;;;;;;778849;177;922383;-65
2024/01/30 04:58:24;;;;;;;19.50;11.30;;;;;;;;;;780321;177;916409;-65
2024/01/30 05:00:51;;;;;;;24.93;11.17;;;;;;;;;;778554;177;920864;-66
2024/01/30 05:03:16;;;;;;;21.60;11.10;;;;;;;;;;788434;177;637010;-60
2024/01/30 05:05:41;;;;;;;18.13;11.47;;;;;;;;;;776716;178;813735;-61
2024/01/30 05:08:07;;;;;;;18.83;11.60;;;;;;;;;;782693;177;860681;-66
2024/01/30 05:10:33;;;;;;;22.23;11.53;;;;;;;;;;782674;178;917229;-62
2024/01/30 05:12:59;;;;;;;20.50;12.00;;;;;;;;;;780041;178;920087;-61
2024/01/30 05:15:25;;;;;;;24.30;12.80;;;;;;;;;;783146;177;632594;-67
2024/01/30 05:17:51;;;;;;;19.77;12.33;;;;;;;;;;789876;176;621362;-66
2024/01/30 05:20:17;;;;;;;18.53;10.97;;;;;;;;;;781597;178;914607;-67
2024/01/30 05:22:44;;;;;;;19.70;12.10;;;;;;;;;;782506;178;901444;-61
2024/01/30 05:25:09;;;;;;;23.87;12.37;;;;;;;;;;780834;177;919785;-62
2024/01/30 05:27:34;;;;;;;22.17;12.63;;;;;;;;;;784086;177;623657;-67
2024/01/30 05:30:00;;;;;;;23.90;12.57;;;;;;;;;;786705;177;628982;-67
2024/01/30 05:32:26;;;;;;;21.63;12.70;;;;;;;;;;783402;178;633387;-66
2024/01/30 05:34:52;;;;;;;19.90;12.40;;;;;;;;;;781400;180;615228;-68
2024/01/30 05:37:18;;;;;;;21.83;11.35;;;;;;;;;;785703;176;622808;-67
2024/01/30 05:39:44;;;;;;;23.40;13.07;;;;;;;;;;779610;178;628398;-62
2024/01/30 05:42:10;;;;;;;22.27;13.47;;;;;;;;;;788032;178;636123;-66
2024/01/30 05:44:35;;;;;;;18.10;11.33;;;;;;;;;;785519;178;628191;-66
2024/01/30 05:47:01;;;;;;;27.07;16.20;;;;;;;;;;787394;177;632066;-67
2024/01/30 05:49:28;;;;;;;29.50;13.40;;;;;;;;;;790613;177;623794;-61
2024/01/30 05:51:53;;;;;;;29.83;15.23;;;;;;;;;;784921;177;625452;-61
2024/01/30 05:54:19;;;;;;;24.43;12.70;;;;;;;;;;788660;177;619547;-66
2024/01/30 05:56:45;;;;;;;25.53;15.00;;;;;;;;;;782089;178;622734;-62
2024/01/30 05:59:10;;;;;;;30.03;18.27;;;;;;;;;;792095;176;640633;-66
2024/01/30 06:01:36;;;;;;;22.77;13.60;;;;;;;;;;786532;178;624480;-61
2024/01/30 06:04:02;;;;;;;27.30;14.63;;;;;;;;;;784475;175;819821;-61
2024/01/30 06:06:29;;;;;;;29.15;16.40;;;;;;;;;;778154;178;863216;-61
2024/01/30 06:08:56;;;;;;;20.80;14.90;;;;;;;;;;782766;178;916647;-61
2024/01/30 06:11:20;;;;;;;26.23;14.50;;;;;;;;;;783294;177;813488;-61
2024/01/30 06:13:46;;;;;;;36.17;14.73;;;;;;;;;;786652;178;817008;-61
2024/01/30 06:16:11;;;;;;;29.73;13.80;;;;;;;;;;781585;178;918970;-61
2024/01/30 06:18:37;;;;;;;30.23;14.53;;;;;;;;;;782281;177;919471;-61
2024/01/30 06:21:03;;;;;;;20.53;11.50;;;;;;;;;;780165;178;919522;-62
2024/01/30 06:23:29;;;;;;;24.57;12.70;;;;;;;;;;783727;179;910583;-66
2024/01/30 06:25:55;;;;;;;26.83;12.60;;;;;;;;;;775585;178;919159;-66
2024/01/30 06:28:22;;;;;;;21.63;12.73;;;;;;;;;;781418;178;916382;-61
2024/01/30 06:30:47;;;;;;;23.97;12.20;;;;;;;;;;782712;178;919484;-61
2024/01/30 06:33:13;;;;;;;27.27;12.80;;;;;;;;;;777942;178;917980;-61
2024/01/30 06:35:40;;;;;;;24.57;13.23;;;;;;;;;;774837;178;919161;-66
2024/01/30 06:38:04;;;;;;;19.90;10.77;;;;;;;;;;782599;177;813608;-65
2024/01/30 06:40:30;;;;;;;23.17;12.63;;;;;;;;;;781448;178;919155;-68
2024/01/30 06:42:56;;;;;;;24.17;12.87;;;;;;;;;;781653;177;796645;-61
2024/01/30 06:45:22;;;;;;;21.75;10.70;;;;;;;;;;789027;177;842430;-66
2024/01/30 06:47:48;;;;;;;19.87;12.40;;;;;;;;;;782499;177;914582;-66
2024/01/30 06:50:13;;;;;;;24.80;14.87;;;;;;;;;;776239;177;913733;-61
2024/01/30 06:52:39;;;;;;;25.07;14.10;;;;;;;;;;778981;175;916774;-66
2024/01/30 06:55:05;;;;;;;21.97;12.07;;;;;;;;;;783475;178;915936;-61
2024/01/30 06:57:31;;;;;;;23.93;14.67;;;;;;;;;;780436;177;920120;-61
2024/01/30 06:59:57;;;;;;;25.13;15.07;;;;;;;;;;787332;175;913892;-67
2024/01/30 07:02:23;;;;;;;20.60;12.90;;;;;;;;;;789259;179;813196;-65
2024/01/30 07:04:49;;;;;;;23.73;13.20;;;;;;;;;;775383;177;918760;-68
2024/01/30 07:07:15;;;;;;;21.83;13.13;;;;;;;;;;778591;177;1020088;-61
2024/01/30 07:09:40;;;;;;;26.70;14.00;;;;;;;;;;782520;177;913440;-61
2024/01/30 07:12:06;;;;;;;26.57;13.30;;;;;;;;;;780195;177;918453;-66
2024/01/30 07:14:32;;;;;;;24.40;12.10;;;;;;;;;;782045;176;1018954;-66
2024/01/30 07:16:58;;;;;;;18.13;11.13;;;;;;;;;;784542;176;916341;-65
2024/01/30 07:19:24;;;;;;;22.95;10.05;;;;;;;;;;781214;179;917976;-61
2024/01/30 07:21:50;;;;;;;18.30;10.20;;;;;;;;;;780885;177;920272;-65
2024/01/30 07:24:16;;;;;;;16.40;11.30;;;;;;;;;;781254;178;826371;-61
2024/01/30 07:26:41;;;;;;;21.40;12.00;;;;;;;;;;786939;178;919042;-61
2024/01/30 07:29:07;;;;;;;22.17;10.77;;;;;;;;;;780427;177;915444;-61
2024/01/30 07:31:33;;;;;;;21.30;11.83;;;;;;;;;;777720;177;912692;-62
2024/01/30 07:33:59;;;;;;;23.00;12.93;;;;;;;;;;782167;177;997615;-66
2024/01/30 07:36:26;;;;;;;21.00;12.97;;;;;;;;;;780657;177;916034;-66
2024/01/30 07:38:52;;;;;;;16.10;9.80;;;;;;;;;;778660;177;919061;-67
2024/01/30 07:41:16;;;;;;;22.00;12.70;;;;;;;;;;786056;177;904142;-65
2024/01/30 07:43:42;;;;;;;22.53;10.10;;;;;;;;;;775617;178;920768;-65
2024/01/30 07:46:08;;;;;;;25.03;11.10;;;;;;;;;;777165;178;934449;-64
2024/01/30 07:48:34;;;;;;;26.97;11.77;;;;;;;;;;782433;176;817351;-64
2024/01/30 07:51:00;;;;;;;26.53;11.77;;;;;;;;;;784732;178;918535;-64
2024/01/30 07:53:26;;;;;;;25.60;10.67;;;;;;;;;;783207;177;900391;-64
2024/01/30 07:56:00;;;;;;;20.60;10.80;;;;;;;;;;780836;177;919637;-65
2024/01/30 07:58:28;;;;;;;14.48;10.27;;;;;;;;;;781967;178;920153;-64
2024/01/30 08:00:53;;;;;;;27.13;12.03;;;;;;;;;;781810;178;919418;-66
2024/01/30 08:03:19;;;;;;;17.53;10.73;;;;;;;;;;781197;176;918309;-67
2024/01/30 08:05:45;;;;;;;21.03;10.37;;;;;;;;;;776666;178;919201;-66
2024/01/30 08:08:11;;;;;;;18.67;10.00;;;;;;;;;;787915;177;817506;-67
2024/01/30 08:10:37;;;;;;;17.83;10.30;;;;;;;;;;776657;177;817330;-66
2024/01/30 08:13:03;;;;;;;20.10;10.53;;;;;;;;;;780223;177;919112;-68
2024/01/30 08:15:28;;;;;;;17.20;9.85;;;;;;;;;;787395;177;891442;-65
2024/01/30 08:17:57;;;;;;;19.33;10.70;;;;;;;;;;780421;177;898036;-64
2024/01/30 08:20:20;;;;;;;16.93;9.37;;;;;;;;;;777018;178;919680;-65
2024/01/30 08:22:46;;;;;;;17.10;10.10;;;;;;;;;;789675;178;818036;-64
2024/01/30 08:25:12;;;;;;;20.73;10.00;;;;;;;;;;782468;178;947595;-69
2024/01/30 08:27:38;;;;;;;19.23;9.60;;;;;;;;;;783748;176;1125508;-68
2024/01/30 08:30:04;;;;;;;20.80;10.73;;;;;;;;;;781740;178;921605;-69
2024/01/30 08:32:30;;;;;;;18.57;8.63;;;;;;;;;;788489;176;817196;-63
2024/01/30 08:34:56;;;;;;;23.97;9.87;;;;;;;;;;782213;178;918851;-62
2024/01/30 08:37:22;;;;;;;18.20;10.05;;;;;;;;;;783725;177;918501;-62
2024/01/30 08:39:47;;;;;;;22.07;9.67;;;;;;;;;;787216;176;1027518;-69
2024/01/30 08:42:13;;;;;;;17.58;11.52;;;;;;;;;;783710;177;918424;-64
2024/01/30 08:44:39;;;;;;;16.10;9.50;;;;;;;;;;776365;177;928406;-63
2024/01/30 08:47:05;;;;;;;23.60;11.17;;;;;;;;;;787548;177;816175;-63
2024/01/30 08:49:31;;;;;;;20.73;9.43;;;;;;;;;;772975;178;919118;-64
2024/01/30 08:51:57;;;;;;;22.27;12.50;;;;;;;;;;781617;177;900396;-69
2024/01/30 08:54:22;;;;;;;20.73;10.10;;;;;;;;;;778049;177;871830;-70
2024/01/30 08:56:48;;;;;;;18.03;9.93;;;;;;;;;;779039;180;912010;-69
2024/01/30 08:59:14;;;;;;;16.47;9.60;;;;;;;;;;772514;178;915480;-64
2024/01/30 09:01:40;;;;;;;16.27;8.80;;;;;;;;;;781771;176;913250;-68
2024/01/30 09:04:06;;;;;;;17.27;9.23;;;;;;;;;;783196;177;913543;-68
2024/01/30 09:06:32;;;;;;;17.73;10.33;;;;;;;;;;781733;177;918873;-65
2024/01/30 09:08:58;;;;;;;16.77;9.98;;;;;;;;;;779485;175;920214;-68
2024/01/30 09:11:23;;;;;;;16.87;8.73;;;;;;;;;;783937;178;919048;-68
2024/01/30 09:13:49;;;;;;;17.57;11.30;;;;;;;;;;773911;178;919331;-65
2024/01/30 09:16:16;;;;;;;15.27;10.43;;;;;;;;;;781035;178;857900;-68
2024/01/30 09:18:42;;;;;;;15.33;10.13;;;;;;;;;;788656;177;816344;-67
2024/01/30 09:21:08;;;;;;;17.37;10.00;;;;;;;;;;786444;178;918966;-67
2024/01/30 09:23:33;;;;;;;18.70;10.87;;;;;;;;;;788947;175;919477;-68
2024/01/30 09:25:59;;;;;;;19.30;10.57;;;;;;;;;;777016;179;897011;-68
2024/01/30 09:28:26;;;;;;;19.60;11.00;;;;;;;;;;786253;177;848184;-69
2024/01/30 09:30:51;;;;;;;16.17;9.40;;;;;;;;;;782580;178;918468;-68
2024/01/30 09:33:17;;;;;;;16.57;9.70;;;;;;;;;;783189;177;918744;-64
2024/01/30 09:35:43;;;;;;;17.73;10.20;;;;;;;;;;787068;178;918043;-64
2024/01/30 09:38:09;;;;;;;20.67;11.67;;;;;;;;;;786139;177;859571;-63
2024/01/30 09:40:34;;;;;;;19.63;9.70;;;;;;;;;;774306;178;933554;-63
2024/01/30 09:43:00;;;;;;;20.93;10.90;;;;;;;;;;786339;176;921289;-66
2024/01/30 09:45:26;;;;;;;18.27;11.50;;;;;;;;;;781270;178;816659;-68
2024/01/30 09:47:52;;;;;;;19.40;10.70;;;;;;;;;;779711;177;920746;-64
2024/01/30 09:50:18;;;;;;;18.90;10.70;;;;;;;;;;780390;177;916002;-63
2024/01/30 09:52:44;;;;;;;18.70;11.07;;;;;;;;;;785290;176;858894;-63
2024/01/30 09:55:10;;;;;;;18.20;9.77;;;;;;;;;;784512;177;916568;-63
2024/01/30 09:57:36;;;;;;;21.92;10.90;;;;;;;;;;781717;177;915909;-64
2024/01/30 10:00:04;;;;;;;18.67;11.00;;;;;;;;;;781370;178;918452;-66
2024/01/30 10:02:29;;;;;;;17.62;10.20;;;;;;;;;;777494;178;919098;-64
2024/01/30 10:04:55;;;;;;;17.33;10.37;;;;;;;;;;778912;180;920051;-63
2024/01/30 10:07:21;;;;;;;18.93;10.83;;;;;;;;;;780768;178;920489;-64
2024/01/30 10:09:47;;;;;;;17.37;12.15;;;;;;;;;;775129;179;918843;-64
2024/01/30 10:12:13;;;;;;;19.80;10.97;;;;;;;;;;778397;178;911062;-64
2024/01/30 10:14:39;;;;;;;17.80;10.83;;;;;;;;;;782216;176;818497;-63
2024/01/30 10:17:05;;;;;;;16.83;10.53;;;;;;;;;;784753;178;917929;-64
2024/01/30 10:19:31;;;;;;;20.30;11.60;;;;;;;;;;779643;175;819146;-67
2024/01/30 10:21:57;;;;;;;25.50;11.53;;;;;;;;;;779237;178;913700;-67
2024/01/30 10:24:24;;;;;;;16.77;11.23;;;;;;;;;;784273;177;921115;-65
2024/01/30 10:26:50;;;;;;;19.10;11.50;;;;;;;;;;779486;178;914693;-66
2024/01/30 10:29:16;;;;;;;31.70;12.57;;;;;;;;;;776868;177;942204;-65
2024/01/30 10:31:42;;;;;;;20.10;11.90;;;;;;;;;;787773;177;919772;-66
2024/01/30 10:34:08;;;;;;;17.40;11.13;;;;;;;;;;780170;177;918713;-64
2024/01/30 10:36:33;;;;;;;23.00;11.17;;;;;;;;;;778584;177;812184;-65
2024/01/30 10:38:59;;;;;;;22.27;10.30;;;;;;;;;;780631;177;920071;-65
2024/01/30 10:41:26;;;;;;;21.10;12.20;;;;;;;;;;771546;181;917064;-65
2024/01/30 10:43:52;;;;;;;21.50;11.43;;;;;;;;;;755255;183;919991;-64
2024/01/30 10:46:19;;;;;;;25.87;12.63;;;;;;;;;;753514;184;920781;-66
2024/01/30 10:48:44;;;;;;;18.90;10.13;;;;;;;;;;755979;183;921517;-65
2024/01/30 10:51:10;;;;;;;18.00;10.80;;;;;;;;;;754653;184;918351;-66
2024/01/30 10:53:36;;;;;;;15.90;10.48;;;;;;;;;;763636;182;814691;-65
2024/01/30 10:56:02;;;;;;;17.17;9.30;;;;;;;;;;772030;181;816579;-65
2024/01/30 10:58:28;;;;;;;17.93;10.20;;;;;;;;;;769860;180;915316;-65
2024/01/30 11:00:54;;;;;;;16.73;10.53;;;;;;;;;;780386;178;913303;-64
2024/01/30 11:03:21;;;;;;;16.90;10.00;;;;;;;;;;779153;178;921013;-66
2024/01/30 11:05:45;;;;;;;16.23;10.20;;;;;;;;;;781271;179;816596;-67
2024/01/30 11:08:12;;;;;;;17.97;9.10;;;;;;;;;;777197;177;920716;-64
2024/01/30 11:10:38;;;;;;;18.53;8.63;;;;;;;;;;777830;178;918876;-64
2024/01/30 11:13:04;;;;;;;13.90;8.97;;;;;;;;;;780582;178;915967;-65
2024/01/30 11:15:31;;;;;;;15.20;8.67;;;;;;;;;;776300;177;916083;-68
2024/01/30 11:17:56;;;;;;;16.45;8.85;;;;;;;;;;780315;177;1026537;-64
2024/01/30 11:20:22;;;;;;;17.30;9.83;;;;;;;;;;780225;178;918553;-65
2024/01/30 11:22:47;;;;;;;20.03;9.30;;;;;;;;;;783193;177;918669;-65
2024/01/30 11:25:13;;;;;;;21.17;9.23;;;;;;;;;;785412;176;924775;-65
2024/01/30 11:27:40;;;;;;;15.43;8.87;;;;;;;;;;780334;178;816371;-65
2024/01/30 11:30:06;;;;;;;17.07;8.97;;;;;;;;;;791009;176;812968;-65
2024/01/30 11:32:32;;;;;;;15.40;8.10;;;;;;;;;;780618;178;822348;-64
2024/01/30 11:34:57;;;;;;;12.80;7.80;;;;;;;;;;780448;178;917935;-65
2024/01/30 11:37:23;;;;;;;19.40;9.07;;;;;;;;;;786670;178;916018;-64
2024/01/30 11:39:49;;;;;;;16.00;7.67;;;;;;;;;;776860;178;919098;-66
2024/01/30 11:42:15;;;;;;;12.53;7.87;;;;;;;;;;772274;178;915395;-65
2024/01/30 11:44:41;;;;;;;14.33;9.13;;;;;;;;;;789155;175;812016;-67
2024/01/30 11:47:07;;;;;;;13.10;8.00;;;;;;;;;;778857;177;926733;-66
2024/01/30 11:49:32;;;;;;;13.30;7.50;;;;;;;;;;781126;177;917729;-64
2024/01/30 11:51:58;;;;;;;12.20;8.13;;;;;;;;;;784104;177;861027;-66
2024/01/30 11:54:24;;;;;;;15.40;9.43;;;;;;;;;;781032;178;935238;-66
2024/01/30 11:56:50;;;;;;;10.17;7.10;;;;;;;;;;776765;178;915716;-64
2024/01/30 11:59:16;;;;;;;13.73;7.80;;;;;;;;;;778488;176;918480;-65
2024/01/30 12:01:41;;;;;;;11.10;6.37;;;;;;;;;;793137;175;874100;-65
2024/01/30 12:04:08;;;;;;;11.93;7.72;;;;;;;;;;778478;180;923935;-66
2024/01/30 12:06:33;;;;;;;10.83;6.00;;;;;;;;;;774499;178;917265;-65
2024/01/30 12:08:59;;;;;;;11.83;6.30;;;;;;;;;;784828;178;817536;-64
2024/01/30 12:11:25;;;;;;;12.90;7.13;;;;;;;;;;775854;177;920337;-65
2024/01/30 12:13:51;;;;;;;11.80;6.80;;;;;;;;;;780600;178;920232;-67
2024/01/30 12:16:17;;;;;;;19.13;7.57;;;;;;;;;;785293;177;920902;-65
2024/01/30 12:18:43;;;;;;;11.57;6.73;;;;;;;;;;781870;176;919195;-65
2024/01/30 12:21:09;;;;;;;11.80;7.23;;;;;;;;;;776710;177;918651;-65
2024/01/30 12:23:35;;;;;;;10.40;7.50;;;;;;;;;;779755;178;918222;-65
2024/01/30 12:26:01;;;;;;;13.53;7.67;;;;;;;;;;781661;180;920590;-64
2024/01/30 12:28:26;;;;;;;14.50;6.97;;;;;;;;;;777213;178;916191;-64
2024/01/30 12:30:57;;;;;;;14.47;7.60;;;;;;;;;;779552;178;919179;-65
2024/01/30 12:33:22;;;;;;;14.30;8.80;;;;;;;;;;781457;178;916741;-66
2024/01/30 12:35:48;;;;;;;13.93;7.10;;;;;;;;;;780257;178;919231;-65
2024/01/30 12:38:14;;;;;;;10.63;6.63;;;;;;;;;;780731;177;932902;-65
2024/01/30 12:40:40;;;;;;;12.40;6.97;;;;;;;;;;783411;178;920379;-65
2024/01/30 12:43:06;;;;;;;13.03;6.60;;;;;;;;;;785957;176;819943;-67
2024/01/30 12:45:31;;;;;;;12.20;6.70;;;;;;;;;;774363;177;918977;-65
2024/01/30 12:47:58;;;;;;;14.13;6.30;;;;;;;;;;777961;177;919121;-65
2024/01/30 12:50:23;;;;;;;13.37;7.20;;;;;;;;;;785384;176;918885;-65
2024/01/30 12:52:49;;;;;;;11.17;6.20;;;;;;;;;;780747;178;919306;-65
2024/01/30 12:55:15;;;;;;;12.68;6.95;;;;;;;;;;780701;176;918960;-65
2024/01/30 12:57:41;;;;;;;11.23;8.90;;;;;;;;;;787628;175;917468;-65
2024/01/30 13:00:08;;;;;;;11.37;6.33;;;;;;;;;;783085;177;882279;-65
2024/01/30 13:02:36;;;;;;;17.93;7.63;;;;;;;;;;775970;178;921541;-65
2024/01/30 13:04:58;;;;;;;12.63;7.40;;;;;;;;;;787271;177;900666;-65
2024/01/30 13:07:24;;;;;;;13.90;7.20;;;;;;;;;;775432;177;917073;-65
2024/01/30 13:09:50;;;;;;;11.53;7.37;;;;;;;;;;782041;178;917388;-65
2024/01/30 13:12:16;;;;;;;15.40;8.23;;;;;;;;;;773957;178;1019668;-66
2024/01/30 13:14:42;;;;;;;16.90;7.50;;;;;;;;;;787353;176;915183;-67
2024/01/30 13:17:08;;;;;;;11.63;6.40;;;;;;;;;;772868;179;918140;-67
2024/01/30 13:19:34;;;;;;;17.67;7.87;;;;;;;;;;777055;178;918510;-67
2024/01/30 13:21:59;;;;;;;17.47;7.00;;;;;;;;;;786478;178;921327;-67
2024/01/30 13:24:26;;;;;;;10.63;6.30;;;;;;;;;;783272;176;921603;-65
2024/01/30 13:26:51;;;;;;;10.07;5.67;;;;;;;;;;780548;177;919079;-67
2024/01/30 13:29:17;;;;;;;11.50;6.10;;;;;;;;;;788107;177;815047;-64
2024/01/30 13:31:44;;;;;;;11.60;6.70;;;;;;;;;;782912;177;817285;-67
2024/01/30 13:34:09;;;;;;;15.83;7.40;;;;;;;;;;781823;178;917251;-66
2024/01/30 13:36:34;;;;;;;15.50;7.93;;;;;;;;;;779758;178;917177;-64
2024/01/30 13:39:00;;;;;;;10.50;5.57;;;;;;;;;;778297;178;889553;-65
2024/01/30 13:41:26;;;;;;;19.13;7.80;;;;;;;;;;773877;178;817370;-65
2024/01/30 13:43:52;;;;;;;10.50;6.03;;;;;;;;;;775317;178;919037;-65
2024/01/30 13:46:18;;;;;;;10.97;7.03;;;;;;;;;;785342;178;918943;-65
2024/01/30 13:48:44;;;;;;;13.20;7.50;;;;;;;;;;779359;178;919531;-66
2024/01/30 13:51:10;;;;;;;12.43;6.47;;;;;;;;;;777289;177;919059;-65
2024/01/30 13:53:35;;;;;;;14.90;6.57;;;;;;;;;;785664;177;918278;-65
2024/01/30 13:56:01;;;;;;;14.00;6.53;;;;;;;;;;779953;178;918784;-66
2024/01/30 13:58:27;;;;;;;10.70;5.87;;;;;;;;;;774221;178;919042;-65
2024/01/30 14:00:53;;;;;;;11.53;6.47;;;;;;;;;;786396;177;919653;-66